Time;durP1;ratioP1;P1;durP2;ratioP2;P2;SDS_P1;SDS_P2;PMS_P1;PMS_P2;Temp;Humidity;BMP_temperature;BMP_pressure;BME280_temperature;BME280_humidity;BME280_pressure;Samples;Min_cycle;Max_cycle;Signal;HPM_P1;HPM_P2
2022/08/02 00:00:00;;;;;;;1999.90;999.90;;;18.60;99.90;;;;;;5034612;28;20555;-67
2022/08/02 00:02:26;;;;;;;1999.90;999.90;;;18.60;99.90;;;;;;5034768;28;20186;-67
2022/08/02 00:04:52;;;;;;;1999.90;999.90;;;18.60;99.90;;;;;;5034647;28;20899;-67
2022/08/02 00:07:17;;;;;;;1999.90;999.90;;;18.70;99.90;;;;;;5034226;28;20211;-67
2022/08/02 00:09:43;;;;;;;1999.90;999.90;;;18.60;99.90;;;;;;5034350;28;20227;-67
2022/08/02 00:12:09;;;;;;;1999.90;999.90;;;18.60;99.90;;;;;;5034471;28;20169;-67
2022/08/02 00:14:36;;;;;;;1999.90;999.90;;;18.60;99.90;;;;;;5034554;28;20463;-67
2022/08/02 00:17:01;;;;;;;1999.90;999.90;;;18.60;99.90;;;;;;5034137;28;20772;-67
2022/08/02 00:19:27;;;;;;;1999.90;999.90;;;18.60;99.90;;;;;;5034398;28;20422;-67
2022/08/02 00:21:52;;;;;;;1999.90;999.90;;;18.70;99.90;;;;;;5034424;28;20262;-67
2022/08/02 00:24:18;;;;;;;1999.90;999.90;;;18.60;99.90;;;;;;5034288;28;20246;-67
2022/08/02 00:26:44;;;;;;;1999.90;999.90;;;18.50;99.90;;;;;;5033789;28;20231;-67
2022/08/02 00:29:09;;;;;;;1999.90;999.90;;;18.50;99.90;;;;;;5034181;28;20210;-67
2022/08/02 00:31:36;;;;;;;1999.90;999.90;;;18.50;99.90;;;;;;5033991;28;20242;-67
2022/08/02 00:34:02;;;;;;;1999.90;999.90;;;18.60;99.90;;;;;;5034039;28;20172;-67
2022/08/02 00:36:28;;;;;;;1999.90;999.90;;;18.70;99.90;;;;;;5033805;28;20407;-67
2022/08/02 00:38:53;;;;;;;1999.90;999.90;;;18.70;99.90;;;;;;5034034;28;20505;-67
2022/08/02 00:41:20;;;;;;;1999.90;999.90;;;18.70;99.90;;;;;;5033915;28;20514;-67
2022/08/02 00:43:47;;;;;;;1999.90;999.90;;;18.50;99.90;;;;;;5033940;28;20176;-67
2022/08/02 00:46:15;;;;;;;1999.90;999.90;;;18.40;99.90;;;;;;5033411;28;20941;-67
2022/08/02 00:48:41;;;;;;;1999.90;999.90;;;18.40;99.90;;;;;;5033844;28;21101;-68
2022/08/02 00:51:07;;;;;;;1999.90;999.90;;;18.30;99.90;;;;;;5033741;28;20483;-67
2022/08/02 00:53:33;;;;;;;1999.90;999.90;;;18.30;99.90;;;;;;5033754;28;20412;-67
2022/08/02 00:55:59;;;;;;;1999.90;999.90;;;18.20;99.90;;;;;;5033469;28;20168;-67
2022/08/02 00:58:25;;;;;;;1999.90;999.90;;;18.30;99.90;;;;;;5033712;28;20406;-67
2022/08/02 01:00:51;;;;;;;1999.90;999.90;;;18.30;99.90;;;;;;5033507;28;20431;-67
2022/08/02 01:03:16;;;;;;;1999.90;999.90;;;18.30;99.90;;;;;;5033261;28;20182;-67
2022/08/02 01:05:43;;;;;;;1999.90;999.90;;;18.30;99.90;;;;;;5033515;28;20642;-67
2022/08/02 01:08:08;;;;;;;1999.90;999.90;;;18.30;99.90;;;;;;5033028;28;20207;-67
2022/08/02 01:10:34;;;;;;;1999.90;999.90;;;18.30;99.90;;;;;;5033168;28;20507;-67
2022/08/02 01:13:00;;;;;;;1999.90;999.90;;;18.20;99.90;;;;;;5033544;28;20179;-67
2022/08/02 01:15:27;;;;;;;1999.90;999.90;;;18.30;99.90;;;;;;5033236;28;20637;-67
2022/08/02 01:17:58;;;;;;;1999.90;999.90;;;18.20;99.90;;;;;;5033000;28;20174;-67
2022/08/02 01:20:36;;;;;;;1999.90;999.90;;;18.20;99.90;;;;;;5033115;28;20529;-67
2022/08/02 01:23:11;;;;;;;1999.90;999.90;;;18.20;99.90;;;;;;5033136;28;20491;-68
2022/08/02 01:25:48;;;;;;;1999.90;999.90;;;18.20;99.90;;;;;;5033075;28;20899;-67
2022/08/02 01:28:35;;;;;;;1999.90;999.90;;;18.10;99.90;;;;;;5032815;28;20825;-66
2022/08/02 01:31:21;;;;;;;1999.90;999.90;;;18.10;99.90;;;;;;5032947;28;20795;-67
2022/08/02 01:33:55;;;;;;;1999.90;999.90;;;18.00;99.90;;;;;;5032969;28;20402;-67
2022/08/02 01:36:26;;;;;;;1999.90;999.90;;;18.00;99.90;;;;;;5032651;28;20397;-67
2022/08/02 01:38:53;;;;;;;1999.90;999.90;;;18.00;99.90;;;;;;5032914;28;20442;-67
2022/08/02 01:41:22;;;;;;;1999.90;999.90;;;17.90;99.90;;;;;;5032738;28;20433;-66
2022/08/02 01:43:52;;;;;;;1999.90;999.90;;;17.80;99.90;;;;;;5032603;28;20731;-67
2022/08/02 01:46:19;;;;;;;1999.90;999.90;;;17.80;99.90;;;;;;5032381;28;20872;-67
2022/08/02 01:48:46;;;;;;;1999.90;999.90;;;17.80;99.90;;;;;;5032662;28;20409;-67
2022/08/02 01:51:16;;;;;;;1999.90;999.90;;;17.70;99.90;;;;;;5032642;28;20459;-66
2022/08/02 01:53:44;;;;;;;1999.90;999.90;;;17.80;99.90;;;;;;5032863;28;20439;-67
2022/08/02 01:56:12;;;;;;;1999.90;999.90;;;17.70;99.90;;;;;;5032159;28;20414;-67
2022/08/02 01:58:40;;;;;;;1999.90;999.90;;;17.60;99.90;;;;;;5032488;28;20812;-67
2022/08/02 02:01:08;;;;;;;1999.90;999.90;;;17.60;99.90;;;;;;5032551;28;20490;-67
2022/08/02 02:03:35;;;;;;;1999.90;999.90;;;17.50;99.90;;;;;;5032421;28;20464;-67
2022/08/02 02:06:04;;;;;;;1999.90;999.90;;;17.50;99.90;;;;;;5032078;28;20483;-67
2022/08/02 02:08:38;;;;;;;1999.90;999.90;;;17.50;99.90;;;;;;5032319;28;20421;-67
2022/08/02 02:11:05;;;;;;;1999.90;999.90;;;17.50;99.90;;;;;;5032087;28;20531;-67
2022/08/02 02:13:31;;;;;;;1999.90;999.90;;;17.60;99.90;;;;;;5032275;28;20443;-67
2022/08/02 02:16:03;;;;;;;1999.90;999.90;;;17.60;99.90;;;;;;5031585;28;20417;-67
2022/08/02 02:18:32;;;;;;;1999.90;999.90;;;17.60;99.90;;;;;;5032255;28;20414;-67
2022/08/02 02:20:58;;;;;;;1999.90;999.90;;;17.60;99.90;;;;;;5032105;28;20429;-67
2022/08/02 02:23:24;;;;;;;1999.90;999.90;;;17.60;99.90;;;;;;5032085;28;20423;-67
2022/08/02 02:25:52;;;;;;;1999.90;999.90;;;17.60;99.90;;;;;;5032208;28;20174;-67
2022/08/02 02:28:23;;;;;;;1999.90;999.90;;;17.50;99.90;;;;;;5031800;28;20225;-67
2022/08/02 02:30:54;;;;;;;1999.90;999.90;;;17.30;99.90;;;;;;5032132;28;20781;-67
2022/08/02 02:33:20;;;;;;;1999.90;999.90;;;17.20;99.90;;;;;;5032059;28;20591;-67
2022/08/02 02:35:49;;;;;;;1999.90;999.90;;;17.20;99.90;;;;;;5031962;28;20424;-67
2022/08/02 02:38:17;;;;;;;1999.90;999.90;;;17.20;99.90;;;;;;5031760;28;20894;-67
2022/08/02 02:40:46;;;;;;;1999.90;999.90;;;17.20;99.90;;;;;;5031841;28;20482;-67
2022/08/02 02:43:12;;;;;;;1999.90;999.90;;;17.10;99.90;;;;;;5031897;28;20406;-68
2022/08/02 02:45:40;;;;;;;1999.90;999.90;;;17.10;99.90;;;;;;5031944;28;20474;-67
2022/08/02 02:48:08;;;;;;;1999.90;999.90;;;17.00;99.90;;;;;;5031544;28;20459;-67
2022/08/02 02:50:35;;;;;;;1999.90;999.90;;;17.00;99.90;;;;;;5031773;28;21101;-67
2022/08/02 02:53:02;;;;;;;1999.90;999.90;;;17.00;99.90;;;;;;5031919;28;20753;-67
2022/08/02 02:55:28;;;;;;;1999.90;999.90;;;16.90;99.90;;;;;;5031799;28;20504;-67
2022/08/02 02:57:54;;;;;;;1999.90;999.90;;;17.00;99.90;;;;;;5031488;28;20489;-67
2022/08/02 03:01:26;;;;;;;1999.90;999.90;;;16.90;99.90;;;;;;5031794;28;20248;-67
2022/08/02 03:03:07;;;;;;;1999.90;999.90;;;16.80;99.90;;;;;;5031607;28;20420;-67
2022/08/02 03:05:33;;;;;;;1999.90;999.90;;;16.80;99.90;;;;;;5031728;28;20895;-67
2022/08/02 03:07:58;;;;;;;1999.90;999.90;;;16.70;99.90;;;;;;5031433;28;20466;-66
2022/08/02 03:10:26;;;;;;;1999.90;999.90;;;16.80;99.90;;;;;;5031593;28;20668;-67
2022/08/02 03:12:51;;;;;;;1999.90;999.90;;;16.80;99.90;;;;;;5031679;28;20231;-67
2022/08/02 03:15:17;;;;;;;1999.90;999.90;;;16.70;99.90;;;;;;5031756;28;20417;-66
2022/08/02 03:17:44;;;;;;;1999.90;999.90;;;16.70;99.90;;;;;;5031366;28;20174;-67
2022/08/02 03:20:13;;;;;;;1999.90;999.90;;;16.60;99.90;;;;;;5031545;28;20427;-67
2022/08/02 03:22:38;;;;;;;1999.90;999.90;;;16.60;99.90;;;;;;5031747;28;20778;-67
2022/08/02 03:25:05;;;;;;;1999.90;999.90;;;16.50;99.90;;;;;;5031659;28;20489;-67
2022/08/02 03:27:31;;;;;;;1999.90;999.90;;;16.50;99.90;;;;;;5033769;28;21021;-66
2022/08/02 03:29:57;;;;;;;1999.90;999.90;;;16.50;99.90;;;;;;5035233;28;20422;-65
2022/08/02 03:32:23;;;;;;;1999.90;999.90;;;16.50;99.90;;;;;;5035281;28;20189;-65
2022/08/02 03:34:48;;;;;;;1999.90;999.90;;;16.50;99.90;;;;;;5035335;28;20240;-67
2022/08/02 03:37:14;;;;;;;1999.90;999.90;;;16.50;99.90;;;;;;5035109;28;20417;-67
2022/08/02 03:39:40;;;;;;;1999.90;999.90;;;16.50;99.90;;;;;;5035177;28;20178;-67
2022/08/02 03:42:07;;;;;;;1999.90;999.90;;;16.50;99.90;;;;;;5035002;28;20889;-67
2022/08/02 03:44:34;;;;;;;1999.90;999.90;;;16.40;99.90;;;;;;5035017;28;20184;-66
2022/08/02 03:47:00;;;;;;;1999.90;999.90;;;16.40;99.90;;;;;;5034673;28;20450;-67
2022/08/02 03:49:26;;;;;;;1999.90;999.90;;;16.30;99.90;;;;;;5034815;28;20944;-67
2022/08/02 03:51:53;;;;;;;1999.90;999.90;;;16.30;99.90;;;;;;5034843;28;20406;-67
2022/08/02 03:54:19;;;;;;;1999.90;999.90;;;16.30;99.90;;;;;;5034878;28;20409;-67
2022/08/02 03:56:45;;;;;;;1999.90;999.90;;;16.30;99.90;;;;;;5034486;28;20781;-67
2022/08/02 03:59:12;;;;;;;1999.90;999.90;;;16.30;99.90;;;;;;5034722;28;20179;-67
2022/08/02 04:01:38;;;;;;;1999.90;999.90;;;16.30;99.90;;;;;;5034849;28;20197;-67
2022/08/02 04:04:05;;;;;;;1999.90;999.90;;;16.30;99.90;;;;;;5034651;28;20780;-66
2022/08/02 04:06:31;;;;;;;1999.90;999.90;;;16.30;99.90;;;;;;5034277;28;20813;-66
2022/08/02 04:08:57;;;;;;;1999.90;999.90;;;16.30;99.90;;;;;;5034656;28;20399;-67
2022/08/02 04:11:31;;;;;;;1999.90;999.90;;;16.30;99.90;;;;;;5034340;28;20480;-67
2022/08/02 04:13:59;;;;;;;1999.90;999.90;;;16.20;99.90;;;;;;5034498;28;20227;-67
2022/08/02 04:16:48;;;;;;;1999.90;999.90;;;16.20;99.90;;;;;;5034189;28;20410;-67
2022/08/02 04:19:19;;;;;;;1999.90;999.90;;;16.20;99.90;;;;;;5016825;28;20413;-67
2022/08/02 04:21:48;;;;;;;1999.90;999.90;;;16.10;99.90;;;;;;5034316;28;20421;-67
2022/08/02 04:24:16;;;;;;;1999.90;999.90;;;16.10;99.90;;;;;;5034244;28;20412;-67
2022/08/02 04:26:43;;;;;;;1999.90;999.90;;;16.10;99.90;;;;;;5034029;28;20463;-67
2022/08/02 04:29:10;;;;;;;1999.90;999.90;;;16.10;99.90;;;;;;5034426;28;20410;-67
2022/08/02 04:31:36;;;;;;;1999.90;999.90;;;16.10;99.90;;;;;;5034074;28;20441;-67
2022/08/02 04:34:03;;;;;;;1999.90;999.90;;;16.10;99.90;;;;;;5034194;28;20410;-67
2022/08/02 04:36:29;;;;;;;1999.90;999.90;;;16.20;99.90;;;;;;5033767;28;20401;-67
2022/08/02 04:38:55;;;;;;;1999.90;999.90;;;16.30;99.90;;;;;;5033319;28;20494;-67
2022/08/02 04:41:20;;;;;;;1999.90;999.90;;;16.30;99.90;;;;;;5033878;28;20585;-65
2022/08/02 04:43:46;;;;;;;1999.90;999.90;;;16.30;99.90;;;;;;5034254;28;20171;-67
2022/08/02 04:46:12;;;;;;;1999.90;999.90;;;16.40;99.90;;;;;;5034020;28;20170;-66
2022/08/02 04:48:37;;;;;;;1999.90;999.90;;;16.40;99.90;;;;;;5034055;28;20168;-67
2022/08/02 04:51:03;;;;;;;1999.90;999.90;;;16.40;99.90;;;;;;5033962;28;20664;-67
2022/08/02 04:53:28;;;;;;;1999.90;999.90;;;16.50;99.90;;;;;;5033700;28;20198;-67
2022/08/02 04:55:54;;;;;;;1999.90;999.90;;;16.50;99.90;;;;;;5033565;28;20727;-67
2022/08/02 04:58:20;;;;;;;1999.90;999.90;;;16.50;99.90;;;;;;5033533;28;20214;-67
2022/08/02 05:00:45;;;;;;;1999.90;999.90;;;16.50;99.90;;;;;;5033871;28;20205;-67
2022/08/02 05:03:11;;;;;;;1999.90;999.90;;;16.60;99.90;;;;;;5033667;28;20191;-67
2022/08/02 05:05:37;;;;;;;1999.90;999.90;;;16.60;99.90;;;;;;5033481;28;20180;-67
2022/08/02 05:08:03;;;;;;;1999.90;999.90;;;16.80;99.90;;;;;;5033134;28;20200;-67
2022/08/02 05:10:29;;;;;;;1999.90;999.90;;;16.90;99.90;;;;;;5074290;22;21086;-70
2022/08/02 05:12:54;;;;;;;1999.90;999.90;;;17.10;99.90;;;;;;5033298;28;20168;-70
2022/08/02 05:15:20;;;;;;;1999.90;999.90;;;17.20;99.90;;;;;;5033377;28;20248;-70
2022/08/02 05:17:47;;;;;;;1999.90;999.90;;;17.20;99.90;;;;;;5032937;28;20537;-70
2022/08/02 05:20:13;;;;;;;1999.90;999.90;;;17.30;99.90;;;;;;5033195;28;20536;-70
2022/08/02 05:22:40;;;;;;;1999.90;999.90;;;17.40;99.90;;;;;;5033130;28;20462;-70
2022/08/02 05:25:06;;;;;;;1999.90;999.90;;;17.50;99.90;;;;;;5033275;28;20399;-70
2022/08/02 05:27:32;;;;;;;1999.90;999.90;;;17.70;99.90;;;;;;5032637;28;21104;-70
2022/08/02 05:29:58;;;;;;;1999.90;999.90;;;17.90;99.90;;;;;;5033008;28;20409;-70
2022/08/02 05:32:24;;;;;;;1999.90;999.90;;;18.10;99.90;;;;;;5033006;28;20928;-70
2022/08/02 05:34:49;;;;;;;1999.90;999.90;;;18.20;99.90;;;;;;5032977;28;20403;-70
2022/08/02 05:37:15;;;;;;;1999.90;999.90;;;18.40;99.90;;;;;;5032489;28;20653;-70
2022/08/02 05:39:41;;;;;;;1999.90;999.90;;;18.50;99.90;;;;;;5032737;28;20181;-70
2022/08/02 05:42:06;;;;;;;1999.90;999.90;;;18.50;99.90;;;;;;5032747;28;20424;-70
2022/08/02 05:44:32;;;;;;;1999.90;999.90;;;18.60;99.90;;;;;;5032759;28;20224;-70
2022/08/02 05:46:58;;;;;;;1999.90;999.90;;;18.70;99.90;;;;;;5032526;28;20745;-70
2022/08/02 05:49:23;;;;;;;1999.90;999.90;;;18.70;99.90;;;;;;5032226;28;20175;-70
2022/08/02 05:52:07;;;;;;;1999.90;999.90;;;18.80;99.90;;;;;;5031984;28;20184;-70
2022/08/02 05:54:41;;;;;;;1999.90;999.90;;;18.80;99.90;;;;;;5032772;28;20175;-70
2022/08/02 05:57:24;;;;;;;1999.90;999.90;;;18.90;99.90;;;;;;5032263;28;20441;-70
2022/08/02 06:00:02;;;;;;;1999.90;999.90;;;18.90;99.90;;;;;;5032476;28;20406;-70
2022/08/02 06:02:29;;;;;;;1999.90;999.90;;;19.00;99.90;;;;;;5032462;28;20410;-70
2022/08/02 06:05:11;;;;;;;1999.90;999.90;;;19.10;99.90;;;;;;5032381;28;20410;-70
2022/08/02 06:07:40;;;;;;;1999.90;999.90;;;19.20;99.90;;;;;;5031988;28;20489;-70
2022/08/02 06:10:08;;;;;;;1999.90;999.90;;;19.30;99.90;;;;;;5032194;28;20414;-70
2022/08/02 06:12:46;;;;;;;1999.90;999.90;;;19.40;99.90;;;;;;5032215;28;20413;-70
2022/08/02 06:15:16;;;;;;;1999.90;999.90;;;19.40;99.90;;;;;;5032429;28;20400;-70
2022/08/02 06:17:43;;;;;;;1999.90;999.90;;;19.50;99.90;;;;;;5031956;28;20412;-70
2022/08/02 06:20:13;;;;;;;1999.90;999.90;;;19.60;99.90;;;;;;5032092;28;20434;-70
2022/08/02 06:22:43;;;;;;;1999.90;999.90;;;19.70;99.90;;;;;;5032228;28;20436;-72
2022/08/02 06:25:10;;;;;;;1999.90;999.90;;;19.70;99.90;;;;;;5040994;28;20489;-71
2022/08/02 06:27:38;;;;;;;1999.90;999.90;;;19.80;99.90;;;;;;5041768;28;20456;-71
2022/08/02 06:30:11;;;;;;;1999.90;999.90;;;19.90;99.90;;;;;;5042317;28;20896;-70
2022/08/02 06:32:37;;;;;;;1999.90;999.90;;;19.90;99.90;;;;;;5041823;28;20411;-71
2022/08/02 06:35:04;;;;;;;1999.90;999.90;;;20.00;99.90;;;;;;5042114;28;20475;-72
2022/08/02 06:37:43;;;;;;;1999.90;999.90;;;20.10;99.90;;;;;;5041422;28;20509;-71
2022/08/02 06:40:27;;;;;;;1999.90;999.90;;;20.20;99.90;;;;;;5041782;28;20432;-71
2022/08/02 06:43:09;;;;;;;1999.90;999.90;;;20.30;99.90;;;;;;5039119;28;20406;-72
2022/08/02 06:45:35;;;;;;;1999.90;999.90;;;20.40;99.90;;;;;;5031972;28;20468;-72
2022/08/02 06:48:01;;;;;;;1999.90;999.90;;;20.60;99.90;;;;;;5031586;28;20619;-72
2022/08/02 06:50:27;;;;;;;1999.90;999.90;;;20.70;99.90;;;;;;5032169;28;20501;-72
2022/08/02 06:52:53;;;;;;;1999.90;999.90;;;20.70;99.90;;;;;;5032108;28;20636;-72
2022/08/02 06:55:18;;;;;;;1999.90;999.90;;;20.80;99.90;;;;;;5032151;28;20170;-72
2022/08/02 06:57:44;;;;;;;1999.90;999.90;;;20.90;99.90;;;;;;5031794;28;20612;-72
2022/08/02 07:00:11;;;;;;;1999.90;999.90;;;21.10;99.90;;;;;;5032173;28;20301;-72
2022/08/02 07:02:38;;;;;;;1999.90;999.90;;;21.20;99.90;;;;;;5035106;28;20192;-72
2022/08/02 07:05:05;;;;;;;1999.90;999.90;;;21.30;99.90;;;;;;5036501;28;20408;-72
2022/08/02 07:07:31;;;;;;;1999.90;999.90;;;21.40;99.90;;;;;;5035944;28;20458;-72
2022/08/02 07:09:58;;;;;;;1999.90;999.90;;;21.60;99.90;;;;;;5036055;28;20537;-72
2022/08/02 07:12:24;;;;;;;1999.90;999.90;;;21.80;99.90;;;;;;5036595;28;20413;-72
2022/08/02 07:14:49;;;;;;;1999.90;999.90;;;21.90;99.90;;;;;;5036384;28;20740;-72
2022/08/02 07:17:15;;;;;;;1999.90;999.90;;;22.00;99.90;;;;;;5036082;28;20167;-72
2022/08/02 07:19:41;;;;;;;1999.90;999.90;;;22.10;99.90;;;;;;5036532;28;20644;-72
2022/08/02 07:22:06;;;;;;;1999.90;999.90;;;22.20;99.90;;;;;;5035979;28;20194;-72
2022/08/02 07:24:32;;;;;;;1999.90;999.90;;;22.40;99.90;;;;;;5035822;28;20534;-72
2022/08/02 07:26:58;;;;;;;1999.90;999.90;;;22.40;99.90;;;;;;5035345;28;20266;-71
2022/08/02 07:29:24;;;;;;;1999.90;999.90;;;22.50;99.90;;;;;;5035439;28;20166;-72
2022/08/02 07:31:50;;;;;;;1999.90;999.90;;;22.70;99.90;;;;;;5035385;28;20397;-72
2022/08/02 07:34:15;;;;;;;1999.90;999.90;;;22.70;99.90;;;;;;5035498;28;20197;-71
2022/08/02 07:36:41;;;;;;;1999.90;999.90;;;22.80;99.90;;;;;;5034868;28;20406;-71
2022/08/02 07:39:06;;;;;;;1999.90;999.90;;;23.00;99.90;;;;;;5035222;28;20168;-71
2022/08/02 07:41:33;;;;;;;1999.90;999.90;;;23.10;99.90;;;;;;5035066;28;20676;-71
2022/08/02 07:43:58;;;;;;;1999.90;999.90;;;23.30;99.90;;;;;;5035117;28;20252;-70
2022/08/02 07:46:24;;;;;;;1999.90;999.90;;;23.40;99.90;;;;;;5034662;28;20493;-71
2022/08/02 07:48:53;;;;;;;1999.90;999.90;;;23.40;99.90;;;;;;5034744;28;20168;-71
2022/08/02 07:51:22;;;;;;;1999.90;999.90;;;23.50;99.90;;;;;;5034831;28;20196;-71
2022/08/02 07:53:47;;;;;;;1999.90;999.90;;;23.60;99.90;;;;;;5034865;28;20417;-71
2022/08/02 07:56:13;;;;;;;1999.90;999.90;;;23.70;99.90;;;;;;5039507;28;20418;-71
2022/08/02 07:58:41;;;;;;;1999.90;999.90;;;23.80;99.90;;;;;;5041796;28;20168;-72
2022/08/02 08:01:06;;;;;;;1999.90;999.90;;;24.00;99.90;;;;;;5040894;28;20203;-71
2022/08/02 08:03:32;;;;;;;1999.90;999.90;;;24.10;99.90;;;;;;5039360;28;20382;-72
2022/08/02 08:05:57;;;;;;;1999.90;999.90;;;24.20;99.90;;;;;;5034616;28;20222;-72
2022/08/02 08:08:23;;;;;;;1999.90;999.90;;;24.30;99.90;;;;;;5034815;28;20203;-72
2022/08/02 08:10:49;;;;;;;1999.90;999.90;;;24.50;99.90;;;;;;5034825;28;20207;-72
2022/08/02 08:13:14;;;;;;;1999.90;999.90;;;24.60;99.90;;;;;;5033285;28;20191;-72
2022/08/02 08:15:41;;;;;;;1999.90;999.90;;;24.80;99.90;;;;;;5034567;28;20168;-72
2022/08/02 08:18:06;;;;;;;1999.90;999.90;;;24.80;99.90;;;;;;5034515;28;20172;-72
2022/08/02 08:20:32;;;;;;;1999.90;999.90;;;25.00;99.90;;;;;;5034419;28;20751;-72
2022/08/02 08:22:58;;;;;;;1999.90;999.90;;;25.20;99.90;;;;;;5034604;28;20171;-72
2022/08/02 08:25:23;;;;;;;1999.90;999.90;;;25.30;99.90;;;;;;5034968;28;20183;-72
2022/08/02 08:27:51;;;;;;;1999.90;999.90;;;25.40;99.90;;;;;;5034231;28;20223;-72
2022/08/02 08:30:18;;;;;;;1999.90;999.90;;;25.50;99.90;;;;;;5034244;28;20600;-72
2022/08/02 08:32:44;;;;;;;1999.90;999.90;;;25.60;99.90;;;;;;5034521;28;20403;-71
2022/08/02 08:35:10;;;;;;;1999.90;999.90;;;25.70;99.90;;;;;;5034329;28;20778;-72
2022/08/02 08:37:37;;;;;;;1999.90;999.90;;;25.80;99.90;;;;;;5035552;28;20433;-72
2022/08/02 08:40:05;;;;;;;1999.90;999.90;;;25.80;99.90;;;;;;5039700;28;20263;-71
2022/08/02 08:42:31;;;;;;;1999.90;999.90;;;25.90;99.90;;;;;;5039115;28;20695;-71
2022/08/02 08:44:57;;;;;;;1999.90;999.90;;;25.90;99.90;;;;;;5039140;28;20427;-72
2022/08/02 08:47:27;;;;;;;1999.90;999.90;;;26.00;99.90;;;;;;5020795;28;20771;-71
2022/08/02 08:49:56;;;;;;;1999.90;999.90;;;26.10;99.90;;;;;;5038556;28;20388;-71
2022/08/02 08:52:24;;;;;;;1999.90;999.90;;;26.10;99.90;;;;;;5039303;28;20411;-71
2022/08/02 08:54:50;;;;;;;1999.90;999.90;;;26.20;99.90;;;;;;5039025;28;20453;-71
2022/08/02 08:57:19;;;;;;;1999.90;999.90;;;26.10;99.90;;;;;;5038651;28;20430;-72
2022/08/02 08:59:45;;;;;;;1999.90;999.90;;;26.20;99.90;;;;;;5038191;28;20452;-71
2022/08/02 09:02:11;;;;;;;1999.90;999.90;;;26.30;99.90;;;;;;5038769;28;20950;-71
2022/08/02 09:04:36;;;;;;;1999.90;999.90;;;26.40;99.90;;;;;;5039317;28;20490;-71
2022/08/02 09:07:02;;;;;;;1999.90;999.90;;;26.40;99.90;;;;;;5038502;28;20192;-72
2022/08/02 09:09:28;;;;;;;1999.90;999.90;;;26.60;99.90;;;;;;5038385;28;20160;-71
2022/08/02 09:11:53;;;;;;;1999.90;999.90;;;26.80;99.90;;;;;;5020548;28;20214;-70
2022/08/02 09:14:28;;;;;;;1999.90;999.90;;;27.00;99.90;;;;;;5035609;28;20168;-70
2022/08/02 09:17:05;;;;;;;1999.90;999.90;;;27.30;99.90;;;;;;5032984;28;20176;-70
2022/08/02 09:19:32;;;;;;;1999.90;999.90;;;27.40;99.90;;;;;;5033338;28;20988;-70
2022/08/02 09:22:06;;;;;;;1999.90;999.90;;;27.50;99.90;;;;;;5033144;28;20509;-70
2022/08/02 09:24:48;;;;;;;1999.90;999.90;;;27.50;99.90;;;;;;5033001;28;20409;-70
2022/08/02 09:27:16;;;;;;;1999.90;999.90;;;27.70;99.90;;;;;;5032782;28;20826;-70
2022/08/02 09:29:52;;;;;;;1999.90;999.90;;;27.70;99.90;;;;;;5033139;28;20435;-70
2022/08/02 09:32:18;;;;;;;1999.90;999.90;;;27.70;99.90;;;;;;5033074;28;20381;-70
2022/08/02 09:34:51;;;;;;;1999.90;999.90;;;27.70;99.90;;;;;;5032902;28;20395;-70
2022/08/02 09:37:25;;;;;;;1999.90;999.90;;;27.60;99.90;;;;;;5032790;28;20755;-70
2022/08/02 09:39:51;;;;;;;1999.90;999.90;;;27.50;99.90;;;;;;5032775;28;20542;-70
2022/08/02 09:42:17;;;;;;;1999.90;999.90;;;27.60;99.90;;;;;;5032820;28;20407;-70
2022/08/02 09:44:53;;;;;;;1999.90;999.90;;;27.70;99.90;;;;;;5032815;28;20602;-70
2022/08/02 09:47:18;;;;;;;1999.90;999.90;;;27.60;99.90;;;;;;5032363;28;20947;-70
2022/08/02 09:49:48;;;;;;;1999.90;999.90;;;27.70;99.90;;;;;;5032677;28;20510;-70
2022/08/02 09:52:14;;;;;;;1999.90;999.90;;;27.70;99.90;;;;;;5032880;28;20168;-70
2022/08/02 09:54:41;;;;;;;1999.90;999.90;;;27.90;99.90;;;;;;5032653;28;20415;-69
2022/08/02 09:57:07;;;;;;;1999.90;999.90;;;28.00;99.90;;;;;;5032301;28;20411;-70
2022/08/02 09:59:33;;;;;;;1999.90;999.90;;;28.00;99.90;;;;;;5032461;28;20777;-70
2022/08/02 10:02:01;;;;;;;1999.90;999.90;;;28.00;99.20;;;;;;5032376;28;20748;-70
2022/08/02 10:04:29;;;;;;;1999.90;999.90;;;28.30;98.60;;;;;;5032278;28;20465;-70
2022/08/02 10:06:55;;;;;;;1999.90;999.90;;;28.50;97.60;;;;;;5031956;28;20541;-70
2022/08/02 10:09:22;;;;;;;1999.90;999.90;;;28.60;96.30;;;;;;5032392;28;20951;-70
2022/08/02 10:11:48;;;;;;;1999.90;999.90;;;28.70;95.50;;;;;;5032146;28;20845;-70
2022/08/02 10:14:14;;;;;;;1999.90;999.90;;;28.80;93.60;;;;;;5032226;28;20414;-70
2022/08/02 10:16:42;;;;;;;1999.90;999.90;;;28.80;93.80;;;;;;5031967;28;20413;-70
2022/08/02 10:19:08;;;;;;;1999.90;999.90;;;28.80;92.20;;;;;;5032148;28;20433;-70
2022/08/02 10:21:55;;;;;;;1999.90;999.90;;;28.90;92.90;;;;;;5032194;28;20418;-70
2022/08/02 10:24:23;;;;;;;1999.90;999.90;;;29.10;91.10;;;;;;5032228;28;20464;-70
2022/08/02 10:26:50;;;;;;;1999.90;999.90;;;29.10;86.70;;;;;;5031707;28;20845;-71
2022/08/02 10:29:26;;;;;;;1999.90;999.90;;;29.20;80.60;;;;;;5031795;28;20422;-70
2022/08/02 10:32:15;;;;;;;1999.90;999.90;;;29.40;77.30;;;;;;5033404;28;20530;-70
2022/08/02 10:34:57;;;;;;;1999.90;999.90;;;29.50;79.20;;;;;;5038124;28;20417;-71
2022/08/02 10:37:28;;;;;;;1999.90;999.90;;;29.50;81.20;;;;;;5035650;28;20416;-71
2022/08/02 10:39:56;;;;;;;1999.90;999.90;;;29.20;84.20;;;;;;5036408;28;20416;-71
2022/08/02 10:42:41;;;;;;;1999.90;999.90;;;28.90;84.60;;;;;;5038573;28;20415;-71
2022/08/02 10:45:11;;;;;;;1999.90;999.90;;;28.70;88.40;;;;;;5035775;28;20435;-71
2022/08/02 10:47:37;;;;;;;1999.90;999.90;;;28.80;84.20;;;;;;5036486;28;20458;-71
2022/08/02 10:50:03;;;;;;;1999.90;999.90;;;28.70;86.10;;;;;;5019857;28;20426;-71
2022/08/02 10:52:30;;;;;;;1999.90;999.90;;;28.90;86.20;;;;;;5037730;28;20172;-71
2022/08/02 10:54:59;;;;;;;1999.90;999.90;;;29.00;86.80;;;;;;5036372;28;20426;-71
2022/08/02 10:57:31;;;;;;;1999.90;999.90;;;29.20;79.60;;;;;;5015174;28;20433;-72
2022/08/02 10:59:59;;;;;;;1999.90;999.90;;;29.20;78.80;;;;;;5031767;28;20399;-72
2022/08/02 11:02:39;;;;;;;1999.90;999.90;;;29.30;78.90;;;;;;5032146;28;20407;-71
2022/08/02 11:05:16;;;;;;;1999.90;999.90;;;29.40;74.00;;;;;;5032094;28;20755;-71
2022/08/02 11:07:47;;;;;;;1999.90;999.90;;;29.30;73.00;;;;;;5031985;28;20458;-72
2022/08/02 11:13:03;;;;;;;1999.90;999.90;;;29.50;72.80;;;;;;5010272;28;20463;-67
2022/08/02 11:15:29;;;;;;;1999.90;999.90;;;29.80;72.70;;;;;;5011996;28;20396;-67
2022/08/02 11:17:57;;;;;;;1999.90;999.90;;;29.80;71.30;;;;;;5011613;28;20400;-67
2022/08/02 11:20:27;;;;;;;1999.90;999.90;;;29.50;70.90;;;;;;5011808;28;20404;-67
2022/08/02 11:22:54;;;;;;;1999.90;999.90;;;29.30;70.50;;;;;;5011874;28;20446;-67
2022/08/02 11:25:23;;;;;;;1999.90;999.90;;;29.40;71.80;;;;;;5011830;28;20415;-66
2022/08/02 11:27:49;;;;;;;1999.90;999.90;;;29.70;69.50;;;;;;5011665;28;20483;-67
2022/08/02 11:30:15;;;;;;;1999.90;999.90;;;29.90;68.50;;;;;;5011641;28;20463;-67
2022/08/02 11:32:41;;;;;;;1999.90;999.90;;;29.90;67.30;;;;;;5011793;28;20928;-67
2022/08/02 11:35:07;;;;;;;1999.90;999.90;;;30.20;67.00;;;;;;5011739;28;20400;-66
2022/08/02 11:37:41;;;;;;;1999.90;999.90;;;30.50;62.00;;;;;;5011437;28;20200;-67
2022/08/02 11:40:15;;;;;;;1999.90;999.90;;;30.40;59.70;;;;;;5011705;28;20439;-67
2022/08/02 11:42:43;;;;;;;1999.90;999.90;;;30.40;59.50;;;;;;5011745;28;20435;-66
2022/08/02 11:45:11;;;;;;;1999.90;999.90;;;30.40;59.70;;;;;;5011663;28;20442;-67
2022/08/02 11:47:51;;;;;;;1999.90;999.90;;;30.40;58.10;;;;;;5012452;28;20448;-67
2022/08/02 11:50:19;;;;;;;1999.90;999.90;;;30.20;57.20;;;;;;5015035;28;20415;-67
2022/08/02 11:52:46;;;;;;;1999.90;999.90;;;30.10;57.30;;;;;;5015489;28;20774;-67
2022/08/02 11:55:12;;;;;;;1999.90;999.90;;;30.00;57.20;;;;;;5015122;28;20400;-67
2022/08/02 11:57:39;;;;;;;1999.90;999.90;;;30.00;56.60;;;;;;5014799;28;20763;-67
2022/08/02 12:00:14;;;;;;;1999.90;999.90;;;30.00;57.80;;;;;;5014968;28;20423;-67
2022/08/02 12:02:46;;;;;;;1999.90;999.90;;;29.90;57.20;;;;;;5014972;28;20411;-67
2022/08/02 12:05:15;;;;;;;1999.90;999.90;;;29.80;56.20;;;;;;5014935;28;20423;-66